Time;durP1;ratioP1;P1;durP2;ratioP2;P2;SDS_P1;SDS_P2;PMS_P1;PMS_P2;Temp;Humidity;BMP_temperature;BMP_pressure;BME280_temperature;BME280_humidity;BME280_pressure;Samples;Min_cycle;Max_cycle;Signal;HPM_P1;HPM_P2
2022/05/21 00:00:21;;;;;;;4.00;3.70;;;19.70;93.90;;;;;;5057496;28;20419;-46
2022/05/21 00:02:48;;;;;;;5.40;3.87;;;19.60;93.70;;;;;;5057475;28;20512;-45
2022/05/21 00:05:15;;;;;;;5.00;4.53;;;19.60;93.90;;;;;;5057162;28;20438;-46
2022/05/21 00:07:42;;;;;;;4.87;3.70;;;19.60;93.70;;;;;;5056965;28;20418;-46
2022/05/21 00:10:07;;;;;;;4.03;3.47;;;19.60;93.70;;;;;;5057074;28;20519;-46
2022/05/21 00:12:34;;;;;;;3.83;3.43;;;19.60;93.60;;;;;;5043456;28;20507;-45
2022/05/21 00:14:59;;;;;;;4.73;4.27;;;19.60;93.60;;;;;;5061086;28;20572;-46
2022/05/21 00:17:25;;;;;;;6.10;3.47;;;19.50;93.50;;;;;;5060243;28;20425;-46
2022/05/21 00:19:51;;;;;;;4.50;3.80;;;19.50;93.50;;;;;;5060538;28;20181;-45
2022/05/21 00:22:16;;;;;;;6.90;4.17;;;19.50;93.50;;;;;;5060987;28;20178;-45
2022/05/21 00:24:42;;;;;;;5.23;3.77;;;19.50;93.40;;;;;;5060689;28;20201;-46
2022/05/21 00:27:07;;;;;;;3.43;3.13;;;19.40;93.10;;;;;;5060999;28;20452;-45
2022/05/21 00:29:33;;;;;;;3.50;3.20;;;19.40;93.10;;;;;;5059878;28;20188;-46
2022/05/21 00:31:59;;;;;;;4.23;3.30;;;19.30;92.90;;;;;;5043181;28;20191;-45
2022/05/21 00:34:24;;;;;;;5.20;4.70;;;19.30;92.60;;;;;;5060531;28;20234;-45
2022/05/21 00:36:50;;;;;;;3.27;2.97;;;19.20;92.40;;;;;;5060645;28;20194;-46
2022/05/21 00:39:16;;;;;;;3.93;3.03;;;19.10;92.10;;;;;;5043284;28;20197;-46
2022/05/21 00:41:43;;;;;;;3.27;2.97;;;19.10;92.30;;;;;;5061047;28;20180;-46
2022/05/21 00:44:09;;;;;;;7.37;2.80;;;19.00;91.90;;;;;;5060501;28;20540;-45
2022/05/21 00:46:40;;;;;;;2.90;2.40;;;19.00;91.40;;;;;;5059157;28;20406;-46
2022/05/21 00:49:22;;;;;;;2.97;2.37;;;18.90;91.40;;;;;;5060013;28;20426;-45
2022/05/21 00:51:58;;;;;;;2.70;2.43;;;18.90;91.20;;;;;;5042887;28;20454;-45
2022/05/21 00:54:33;;;;;;;2.90;2.57;;;18.80;91.20;;;;;;5042644;28;20559;-45
2022/05/21 00:57:07;;;;;;;5.40;2.40;;;18.80;91.50;;;;;;5043111;28;20857;-46
2022/05/21 00:59:49;;;;;;;4.10;2.83;;;18.80;91.40;;;;;;5060182;28;20438;-46
2022/05/21 01:02:18;;;;;;;2.27;2.03;;;18.80;91.50;;;;;;5044568;28;20457;-46
2022/05/21 01:04:46;;;;;;;3.10;2.23;;;18.80;91.40;;;;;;5041406;28;20486;-46
2022/05/21 01:07:14;;;;;;;2.60;2.40;;;18.80;91.20;;;;;;5059587;28;20416;-46
2022/05/21 01:09:43;;;;;;;4.20;2.97;;;18.80;91.20;;;;;;5059971;28;20425;-46
2022/05/21 01:12:09;;;;;;;2.33;2.07;;;18.70;91.30;;;;;;5042884;28;20477;-46
2022/05/21 01:14:36;;;;;;;2.77;2.40;;;18.70;91.50;;;;;;5060006;28;21172;-46
2022/05/21 01:17:03;;;;;;;3.07;2.63;;;18.70;91.30;;;;;;5042869;28;20191;-46
2022/05/21 01:19:29;;;;;;;2.80;2.07;;;18.70;91.20;;;;;;5059589;28;20442;-45
2022/05/21 01:21:55;;;;;;;3.40;2.20;;;18.70;91.30;;;;;;5058455;28;20706;-46
2022/05/21 01:24:21;;;;;;;2.43;1.80;;;18.70;91.40;;;;;;5059372;28;20523;-46
2022/05/21 01:26:47;;;;;;;2.60;2.37;;;18.70;91.30;;;;;;5059593;28;20180;-46
2022/05/21 01:29:23;;;;;;;2.03;1.90;;;18.70;91.30;;;;;;5059320;28;20468;-46
2022/05/21 01:31:51;;;;;;;2.87;2.60;;;18.70;91.40;;;;;;5042840;28;20282;-46
2022/05/21 01:34:17;;;;;;;3.03;2.20;;;18.70;91.30;;;;;;5059680;28;20485;-46
2022/05/21 01:36:42;;;;;;;2.40;2.20;;;18.70;91.00;;;;;;5059642;28;20450;-46
2022/05/21 01:39:08;;;;;;;3.10;2.40;;;18.70;90.90;;;;;;5059477;28;20462;-46
2022/05/21 01:41:34;;;;;;;2.73;2.53;;;18.60;90.80;;;;;;5059343;28;20248;-46
2022/05/21 01:46:43;;;;;;;2.40;2.10;;;18.60;90.60;;;;;;5044073;28;20263;-46
2022/05/21 01:49:09;;;;;;;2.93;2.10;;;18.60;90.60;;;;;;5059329;28;20441;-46
2022/05/21 01:51:35;;;;;;;4.47;1.90;;;18.60;90.40;;;;;;5059347;28;20179;-46
2022/05/21 01:54:00;;;;;;;2.33;1.90;;;18.50;90.20;;;;;;5058760;28;20210;-46
2022/05/21 01:56:26;;;;;;;2.77;1.80;;;18.50;90.10;;;;;;5058687;28;20272;-46
2022/05/21 01:58:52;;;;;;;2.50;2.10;;;18.40;90.00;;;;;;5058983;28;20190;-46
2022/05/21 02:01:18;;;;;;;3.80;2.30;;;18.30;90.10;;;;;;5058516;28;20178;-46
2022/05/21 02:03:43;;;;;;;3.23;2.40;;;18.30;89.90;;;;;;5058581;28;20281;-46
2022/05/21 02:06:09;;;;;;;2.77;1.70;;;18.30;89.30;;;;;;5058549;28;20516;-46
2022/05/21 02:08:35;;;;;;;2.27;1.90;;;18.20;89.00;;;;;;5058226;28;20174;-46
2022/05/21 02:11:01;;;;;;;3.60;2.10;;;18.20;88.90;;;;;;5058178;28;20264;-44
2022/05/21 02:13:29;;;;;;;2.37;2.13;;;18.10;88.90;;;;;;5040349;28;20546;-46
2022/05/21 02:15:55;;;;;;;3.73;2.10;;;18.00;88.70;;;;;;5057199;28;20414;-46
2022/05/21 02:18:21;;;;;;;3.10;2.30;;;17.90;89.30;;;;;;5057311;28;20431;-45
2022/05/21 02:20:48;;;;;;;2.57;1.80;;;17.90;89.60;;;;;;5057674;28;20418;-46
2022/05/21 02:23:14;;;;;;;2.20;2.00;;;17.90;89.20;;;;;;5058207;28;20182;-46
2022/05/21 02:25:40;;;;;;;3.70;1.87;;;17.80;89.00;;;;;;5058779;28;20710;-46
2022/05/21 02:28:06;;;;;;;1.57;1.47;;;17.80;89.10;;;;;;5057394;28;20428;-46
2022/05/21 02:30:31;;;;;;;4.40;2.73;;;17.70;88.50;;;;;;5058384;28;20409;-45
2022/05/21 02:32:57;;;;;;;5.00;2.00;;;17.70;89.10;;;;;;5065437;28;20560;-46
2022/05/21 02:35:23;;;;;;;2.03;1.30;;;17.70;88.90;;;;;;5078317;28;20492;-46
2022/05/21 02:40:33;;;;;;;2.30;1.87;;;17.60;88.60;;;;;;5077884;28;20747;-46
2022/05/21 02:42:58;;;;;;;3.00;1.90;;;17.60;88.80;;;;;;5077853;28;20409;-46
2022/05/21 02:45:26;;;;;;;1.73;1.63;;;17.60;88.50;;;;;;5078423;28;20186;-46
2022/05/21 02:47:53;;;;;;;1.73;1.63;;;17.60;88.30;;;;;;5078206;28;20204;-46
2022/05/21 02:50:22;;;;;;;2.20;1.70;;;17.60;88.60;;;;;;5060107;28;20436;-46
2022/05/21 02:52:47;;;;;;;2.77;1.73;;;17.60;89.00;;;;;;5078296;28;20421;-45
2022/05/21 02:55:14;;;;;;;1.73;1.60;;;17.60;88.80;;;;;;5078133;28;20471;-46
2022/05/21 02:57:40;;;;;;;4.00;2.17;;;17.60;88.30;;;;;;5078153;28;20171;-46
2022/05/21 03:00:19;;;;;;;2.63;1.87;;;17.60;88.50;;;;;;5077966;28;20432;-46
2022/05/21 03:02:45;;;;;;;2.53;1.80;;;17.60;88.90;;;;;;5078121;28;20509;-46
2022/05/21 03:05:11;;;;;;;2.10;1.90;;;17.60;88.40;;;;;;5077861;28;20905;-46
2022/05/21 03:07:42;;;;;;;1.60;1.43;;;17.60;88.50;;;;;;5077942;28;20412;-46
2022/05/21 03:10:23;;;;;;;4.53;1.97;;;17.60;88.70;;;;;;5077910;28;20518;-46
2022/05/21 03:12:53;;;;;;;1.80;1.40;;;17.60;88.80;;;;;;5076599;28;20843;-46
2022/05/21 03:15:20;;;;;;;2.60;1.90;;;17.60;88.60;;;;;;5076894;28;20896;-46
2022/05/21 03:17:46;;;;;;;2.07;1.60;;;17.60;89.00;;;;;;5077073;28;20404;-47
2022/05/21 03:20:13;;;;;;;1.93;1.50;;;17.60;88.60;;;;;;5077172;28;20884;-46
2022/05/21 03:22:43;;;;;;;2.17;1.30;;;17.50;89.30;;;;;;5077647;28;20740;-45
2022/05/21 03:25:09;;;;;;;3.00;1.97;;;17.50;88.70;;;;;;5077585;28;20918;-46
2022/05/21 03:27:35;;;;;;;2.53;2.20;;;17.50;88.50;;;;;;5077703;28;20425;-46
2022/05/21 03:30:02;;;;;;;2.80;2.10;;;17.50;88.80;;;;;;5059688;28;20442;-46
2022/05/21 03:32:28;;;;;;;2.50;1.90;;;17.50;88.50;;;;;;5077464;28;21039;-46
2022/05/21 03:34:53;;;;;;;14.90;2.57;;;17.40;88.50;;;;;;5077240;28;20592;-47
2022/05/21 03:37:19;;;;;;;2.13;1.93;;;17.40;88.70;;;;;;5059666;28;20177;-42
2022/05/21 03:39:45;;;;;;;2.70;2.30;;;17.50;89.10;;;;;;5077454;28;20192;-41
2022/05/21 03:42:10;;;;;;;2.33;2.13;;;17.50;88.90;;;;;;5077671;28;20196;-40
2022/05/21 03:44:36;;;;;;;2.40;2.20;;;17.60;88.60;;;;;;5077098;28;20580;-42
2022/05/21 03:47:02;;;;;;;2.50;2.30;;;17.60;88.00;;;;;;5077860;28;20190;-41
2022/05/21 03:49:28;;;;;;;2.57;2.10;;;17.70;88.00;;;;;;5077563;28;20454;-41
2022/05/21 03:51:54;;;;;;;3.00;2.67;;;17.70;87.50;;;;;;5077704;28;20419;-44
2022/05/21 03:54:20;;;;;;;4.27;2.27;;;17.70;87.10;;;;;;5077632;28;20560;-41
2022/05/21 03:56:45;;;;;;;2.37;2.03;;;17.70;86.50;;;;;;5077177;28;20482;-43
2022/05/21 03:59:11;;;;;;;2.83;2.60;;;17.70;86.00;;;;;;5076972;28;20189;-42
2022/05/21 04:01:37;;;;;;;2.30;2.03;;;17.70;85.60;;;;;;5077386;28;20259;-42
2022/05/21 04:04:03;;;;;;;2.20;1.90;;;17.60;85.90;;;;;;5077764;28;20186;-43
2022/05/21 04:06:29;;;;;;;5.00;2.33;;;17.60;86.20;;;;;;5077996;28;20186;-42
2022/05/21 04:08:55;;;;;;;2.60;2.33;;;17.60;86.00;;;;;;5076883;28;20438;-40
2022/05/21 04:11:20;;;;;;;3.10;2.50;;;17.60;85.40;;;;;;5077262;28;20187;-48
2022/05/21 04:13:46;;;;;;;2.40;2.07;;;17.60;85.40;;;;;;5076529;28;20198;-42
2022/05/21 04:16:11;;;;;;;1.90;1.80;;;17.60;85.40;;;;;;5076322;28;20192;-42
2022/05/21 04:18:37;;;;;;;2.70;2.50;;;17.50;85.30;;;;;;5076843;28;20578;-43
2022/05/21 04:21:03;;;;;;;3.87;2.00;;;17.50;84.80;;;;;;5075824;28;20182;-40
2022/05/21 04:23:28;;;;;;;2.40;2.10;;;17.50;84.80;;;;;;5076327;28;20248;-42
2022/05/21 04:25:54;;;;;;;2.30;2.10;;;17.50;84.50;;;;;;5075728;28;20187;-41
2022/05/21 04:28:19;;;;;;;3.00;2.27;;;17.50;84.80;;;;;;5075472;28;20622;-42
2022/05/21 04:30:45;;;;;;;2.40;2.20;;;17.60;84.20;;;;;;5075125;28;20563;-41
2022/05/21 04:33:11;;;;;;;2.20;1.83;;;17.60;84.00;;;;;;5075498;28;20229;-41
2022/05/21 04:38:21;;;;;;;3.60;2.00;;;17.70;83.40;;;;;;5075312;28;20299;-40
2022/05/21 04:40:47;;;;;;;2.10;1.90;;;17.80;83.10;;;;;;5075495;28;20511;-43
2022/05/21 04:43:13;;;;;;;2.50;2.30;;;17.80;83.10;;;;;;5075882;28;20232;-41
2022/05/21 04:45:39;;;;;;;2.70;1.87;;;17.90;82.60;;;;;;5076325;28;20461;-43
2022/05/21 04:48:06;;;;;;;3.33;2.33;;;18.00;82.30;;;;;;5076745;28;20444;-43
2022/05/21 04:50:35;;;;;;;2.60;2.20;;;18.10;81.80;;;;;;5076166;28;20889;-41
2022/05/21 04:53:00;;;;;;;2.60;1.90;;;18.10;81.80;;;;;;5058926;28;20423;-41
2022/05/21 04:55:26;;;;;;;3.83;2.60;;;18.10;81.40;;;;;;5075451;28;20475;-43
2022/05/21 04:57:52;;;;;;;2.30;1.80;;;18.10;80.50;;;;;;5080051;28;20175;-41
2022/05/21 05:00:17;;;;;;;2.60;1.90;;;18.10;80.40;;;;;;5063061;28;20189;-44
2022/05/21 05:02:43;;;;;;;2.87;2.60;;;18.20;80.40;;;;;;5080062;28;20265;-43
2022/05/21 05:05:09;;;;;;;2.80;2.40;;;18.20;80.20;;;;;;5080642;28;20433;-42
2022/05/21 05:07:37;;;;;;;3.00;2.30;;;18.20;79.80;;;;;;5062292;28;20221;-42
2022/05/21 05:10:04;;;;;;;5.47;2.57;;;18.20;79.60;;;;;;5080229;28;20465;-42
2022/05/21 05:12:31;;;;;;;2.90;1.87;;;18.30;79.80;;;;;;5079093;28;20834;-42
2022/05/21 05:14:57;;;;;;;3.60;2.50;;;18.20;79.70;;;;;;5078024;28;20475;-42
2022/05/21 05:17:24;;;;;;;1.73;1.60;;;18.30;79.80;;;;;;5077964;28;20439;-42
2022/05/21 05:19:56;;;;;;;4.60;2.80;;;18.30;79.90;;;;;;5078475;28;20848;-44
2022/05/21 05:22:22;;;;;;;4.27;2.40;;;18.40;79.40;;;;;;5077893;28;20862;-42
2022/05/21 05:24:48;;;;;;;4.20;2.60;;;18.40;79.20;;;;;;5078056;28;20460;-45
2022/05/21 05:27:14;;;;;;;4.17;2.10;;;18.50;78.90;;;;;;5078303;28;20421;-42
2022/05/21 05:29:39;;;;;;;2.53;2.20;;;18.50;78.60;;;;;;5078049;28;20170;-40
2022/05/21 05:32:06;;;;;;;2.60;2.30;;;18.60;78.80;;;;;;5078962;28;20213;-42
2022/05/21 05:34:31;;;;;;;3.13;2.10;;;18.60;78.10;;;;;;5077688;28;20315;-41
2022/05/21 05:36:57;;;;;;;2.07;1.80;;;18.60;78.20;;;;;;5077971;28;20482;-41
2022/05/21 05:39:23;;;;;;;2.23;1.63;;;18.70;78.00;;;;;;5077865;28;20188;-41
2022/05/21 05:41:49;;;;;;;1.60;1.50;;;18.80;77.80;;;;;;5059611;28;20189;-41
2022/05/21 05:44:14;;;;;;;2.00;1.80;;;18.90;76.80;;;;;;5078004;28;20523;-41
2022/05/21 05:46:40;;;;;;;2.70;1.80;;;19.00;76.30;;;;;;5077538;28;20420;-44
2022/05/21 05:49:06;;;;;;;2.40;1.73;;;19.10;76.00;;;;;;5079093;28;20189;-43
2022/05/21 05:51:32;;;;;;;2.07;1.87;;;19.20;75.60;;;;;;5060886;28;20252;-40
2022/05/21 05:53:57;;;;;;;1.87;1.67;;;19.20;75.00;;;;;;5077037;28;20506;-42
2022/05/21 05:56:23;;;;;;;4.13;1.83;;;19.30;75.50;;;;;;5077938;28;20178;-43
2022/05/21 06:01:33;;;;;;;2.17;1.50;;;19.40;74.10;;;;;;5077247;28;20286;-41
2022/05/21 06:03:58;;;;;;;2.60;1.70;;;19.40;73.70;;;;;;5060216;28;20462;-43
2022/05/21 06:06:24;;;;;;;1.57;1.47;;;19.50;73.50;;;;;;5078000;28;20552;-42
2022/05/21 06:08:50;;;;;;;2.00;1.80;;;19.70;72.40;;;;;;5078147;28;20192;-42
2022/05/21 06:11:16;;;;;;;2.27;1.50;;;19.70;71.50;;;;;;5060132;28;20186;-42
2022/05/21 06:13:43;;;;;;;2.07;1.43;;;19.70;71.70;;;;;;5076862;28;20566;-43
2022/05/21 06:16:09;;;;;;;1.63;1.53;;;19.90;71.60;;;;;;5077473;28;20417;-43
2022/05/21 06:18:34;;;;;;;2.17;1.57;;;20.10;70.80;;;;;;5077724;28;20686;-42
2022/05/21 06:21:02;;;;;;;1.73;1.53;;;20.10;70.10;;;;;;5076406;28;20496;-40
2022/05/21 06:23:27;;;;;;;2.20;1.63;;;20.20;69.00;;;;;;5057330;28;20176;-41
2022/05/21 06:25:53;;;;;;;2.10;1.83;;;20.20;68.30;;;;;;5074796;28;20814;-41
2022/05/21 06:28:19;;;;;;;2.60;1.43;;;20.30;68.70;;;;;;5074468;28;20183;-42
2022/05/21 06:30:45;;;;;;;2.63;1.50;;;20.40;68.60;;;;;;5073804;28;20854;-41
2022/05/21 06:33:20;;;;;;;2.07;1.23;;;20.60;67.90;;;;;;5074258;28;20602;-44
2022/05/21 06:35:47;;;;;;;1.57;1.30;;;20.70;65.90;;;;;;5076410;28;20424;-40
2022/05/21 06:38:13;;;;;;;1.80;1.47;;;20.70;64.20;;;;;;5058786;28;20492;-40
2022/05/21 06:40:39;;;;;;;4.17;2.23;;;20.70;65.00;;;;;;5058616;28;20418;-41
2022/05/21 06:43:05;;;;;;;2.90;1.47;;;20.70;64.10;;;;;;5076132;28;20426;-43
2022/05/21 06:45:32;;;;;;;1.57;1.40;;;20.90;64.10;;;;;;5076515;28;20185;-40
2022/05/21 06:48:01;;;;;;;2.17;1.27;;;21.10;64.30;;;;;;5076007;28;20175;-42
2022/05/21 06:50:27;;;;;;;2.07;1.23;;;21.30;63.70;;;;;;5059584;28;20427;-42
2022/05/21 06:52:54;;;;;;;1.30;1.10;;;21.40;62.30;;;;;;5076272;28;20427;-44
2022/05/21 06:55:21;;;;;;;2.37;1.20;;;21.50;61.20;;;;;;5078136;28;20207;-43
2022/05/21 06:57:49;;;;;;;1.23;0.80;;;21.60;60.00;;;;;;5062369;28;20417;-41
2022/05/21 07:00:15;;;;;;;1.57;1.30;;;21.70;60.00;;;;;;5079635;28;20407;-40
2022/05/21 07:02:41;;;;;;;2.00;1.47;;;21.70;59.40;;;;;;5075720;28;20412;-44
2022/05/21 07:07:52;;;;;;;1.47;1.27;;;21.90;59.00;;;;;;5074545;28;20329;-44
2022/05/21 07:10:21;;;;;;;1.50;1.20;;;21.80;58.50;;;;;;5074140;28;20500;-43
2022/05/21 07:12:48;;;;;;;4.47;1.20;;;21.70;58.10;;;;;;5073134;28;20166;-47
2022/05/21 07:15:15;;;;;;;1.57;1.30;;;21.70;58.00;;;;;;5073734;28;20865;-43
2022/05/21 07:17:41;;;;;;;1.93;1.20;;;21.80;58.30;;;;;;5074814;28;20902;-45
2022/05/21 07:20:10;;;;;;;1.60;0.93;;;21.90;58.40;;;;;;5074300;28;20865;-45
2022/05/21 07:22:40;;;;;;;1.33;0.97;;;22.10;58.30;;;;;;5076464;28;20439;-44
2022/05/21 07:25:06;;;;;;;1.87;1.10;;;22.30;57.60;;;;;;5058922;28;20556;-46
2022/05/21 07:27:32;;;;;;;1.80;1.00;;;22.50;57.10;;;;;;5074665;28;20687;-44
2022/05/21 07:29:58;;;;;;;1.40;0.93;;;22.70;57.00;;;;;;5055882;28;20429;-44
2022/05/21 07:32:27;;;;;;;2.50;1.00;;;22.80;56.00;;;;;;5072652;28;20179;-49
2022/05/21 07:34:57;;;;;;;1.80;1.03;;;22.80;55.30;;;;;;5073540;28;20241;-44
2022/05/21 07:37:22;;;;;;;2.10;1.13;;;22.80;55.40;;;;;;5074450;28;20494;-42
2022/05/21 07:39:48;;;;;;;3.20;1.10;;;23.00;55.10;;;;;;5073286;28;20625;-44
2022/05/21 07:42:14;;;;;;;1.30;0.90;;;23.00;54.00;;;;;;5071674;28;20181;-44
2022/05/21 07:44:39;;;;;;;1.37;0.77;;;23.00;54.30;;;;;;5072356;28;20392;-43
2022/05/21 07:47:05;;;;;;;1.97;0.80;;;23.10;53.70;;;;;;5072691;28;20295;-44
2022/05/21 07:49:31;;;;;;;1.60;0.80;;;23.20;53.40;;;;;;5073641;28;20192;-42
2022/05/21 07:51:59;;;;;;;3.03;1.07;;;23.40;53.40;;;;;;5073981;28;20251;-46
2022/05/21 07:54:25;;;;;;;2.00;0.77;;;23.60;51.90;;;;;;5055436;28;20526;-44
2022/05/21 07:56:51;;;;;;;1.77;0.90;;;23.70;52.00;;;;;;5056585;28;20420;-42
2022/05/21 07:59:16;;;;;;;1.50;0.90;;;23.80;51.50;;;;;;5056419;28;20872;-43
2022/05/21 08:01:43;;;;;;;5.73;1.30;;;23.80;51.30;;;;;;5076195;28;20314;-45
2022/05/21 08:04:09;;;;;;;2.00;1.57;;;24.00;51.40;;;;;;5057417;28;20185;-45
2022/05/21 08:06:34;;;;;;;1.30;0.80;;;24.20;50.60;;;;;;5075224;28;20854;-43
2022/05/21 08:09:01;;;;;;;2.13;0.80;;;24.50;50.70;;;;;;5075706;28;20437;-43
2022/05/21 08:11:27;;;;;;;1.40;0.73;;;24.60;49.60;;;;;;5055880;28;20456;-42
2022/05/21 08:13:53;;;;;;;1.00;0.80;;;24.80;49.60;;;;;;5074618;28;20484;-43
2022/05/21 08:16:19;;;;;;;0.90;0.60;;;24.90;49.50;;;;;;5074243;28;20426;-46
2022/05/21 08:18:45;;;;;;;2.37;1.03;;;24.90;48.30;;;;;;5057071;28;20562;-42
2022/05/21 08:21:11;;;;;;;1.80;0.90;;;24.90;48.20;;;;;;5073871;28;20425;-44
2022/05/21 08:29:05;;;;;;;1.17;0.63;;;25.30;46.90;;;;;;5074974;28;20519;-44
2022/05/21 08:31:31;;;;;;;1.60;0.83;;;25.20;47.00;;;;;;5076812;28;20927;-44
2022/05/21 08:33:57;;;;;;;1.23;0.80;;;25.20;46.80;;;;;;5079384;28;20648;-42
2022/05/21 08:36:22;;;;;;;1.63;0.87;;;25.30;46.50;;;;;;5079619;28;20275;-44
2022/05/21 08:38:48;;;;;;;1.00;0.60;;;25.40;46.50;;;;;;5077371;28;20491;-46
2022/05/21 08:41:26;;;;;;;1.33;0.77;;;25.60;46.50;;;;;;5078748;28;20522;-44
2022/05/21 08:43:55;;;;;;;1.57;0.80;;;25.70;45.00;;;;;;5078902;28;20207;-44
2022/05/21 08:46:36;;;;;;;2.73;0.60;;;25.80;45.10;;;;;;5078862;28;20666;-47
2022/05/21 08:49:08;;;;;;;1.60;0.83;;;25.90;44.80;;;;;;5076807;28;20505;-44
2022/05/21 08:51:45;;;;;;;1.47;0.97;;;26.00;44.70;;;;;;5077883;28;20423;-43
2022/05/21 08:54:11;;;;;;;2.57;0.87;;;26.10;44.10;;;;;;5061391;28;20520;-43
2022/05/21 08:56:37;;;;;;;1.20;0.70;;;26.40;44.40;;;;;;5061810;28;20421;-48
2022/05/21 08:59:05;;;;;;;1.63;0.90;;;26.60;44.20;;;;;;5079029;28;20864;-43
2022/05/21 09:01:33;;;;;;;3.97;0.80;;;26.90;44.00;;;;;;5042530;28;20419;-42
2022/05/21 09:03:59;;;;;;;1.20;0.90;;;27.20;43.20;;;;;;5078893;28;20521;-42
2022/05/21 09:06:39;;;;;;;1.50;0.70;;;27.20;42.50;;;;;;5059088;28;20412;-45
2022/05/21 09:09:32;;;;;;;1.23;0.70;;;27.20;42.60;;;;;;5059830;28;20723;-44
2022/05/21 09:12:15;;;;;;;2.03;0.90;;;27.40;41.00;;;;;;5077499;28;20414;-46
2022/05/21 09:14:43;;;;;;;3.00;0.90;;;27.60;41.60;;;;;;5058229;28;20472;-45
2022/05/21 09:17:15;;;;;;;1.40;0.90;;;27.70;40.90;;;;;;5075870;28;20419;-43
2022/05/21 09:19:57;;;;;;;3.10;0.90;;;27.70;40.50;;;;;;5076776;28;20423;-47
2022/05/21 09:22:23;;;;;;;1.30;0.80;;;27.70;40.60;;;;;;5041456;28;20855;-45
2022/05/21 09:24:50;;;;;;;1.20;0.90;;;28.00;40.60;;;;;;5075055;28;20485;-43
2022/05/21 09:27:38;;;;;;;1.33;0.80;;;28.30;40.20;;;;;;5077379;28;20431;-45
2022/05/21 09:30:24;;;;;;;2.03;0.90;;;28.50;39.80;;;;;;5043762;28;20710;-42
2022/05/21 09:32:52;;;;;;;1.30;0.70;;;28.60;39.40;;;;;;5076277;28;20887;-43
2022/05/21 09:35:31;;;;;;;1.70;0.80;;;28.90;39.20;;;;;;5077345;28;20467;-44
2022/05/21 09:38:14;;;;;;;1.80;0.70;;;29.00;38.90;;;;;;5059068;28;20390;-45
2022/05/21 09:40:41;;;;;;;1.37;0.80;;;29.20;38.30;;;;;;5075498;28;20427;-43
2022/05/21 09:46:30;;;;;;;2.70;1.00;;;29.60;37.70;;;;;;5077298;28;20382;-48
2022/05/21 09:49:12;;;;;;;1.57;0.80;;;29.80;36.90;;;;;;5060579;28;20904;-43
2022/05/21 09:51:40;;;;;;;2.10;0.97;;;30.10;37.20;;;;;;5078615;28;20659;-47
2022/05/21 09:54:33;;;;;;;1.30;0.67;;;30.30;36.80;;;;;;5060147;28;20475;-43
2022/05/21 09:56:59;;;;;;;1.63;0.80;;;30.60;36.50;;;;;;5077467;28;20408;-44
2022/05/21 09:59:29;;;;;;;1.30;0.87;;;30.60;36.10;;;;;;5077902;28;20423;-42
2022/05/21 10:02:01;;;;;;;3.23;1.13;;;30.60;36.00;;;;;;5060930;28;20478;-42
2022/05/21 10:04:50;;;;;;;2.37;0.90;;;30.90;35.20;;;;;;5076765;28;20868;-44
2022/05/21 10:13:22;;;;;;;1.30;0.67;;;31.00;34.40;;;;;;5061377;28;20392;-42
2022/05/21 10:15:58;;;;;;;3.37;0.50;;;31.20;34.10;;;;;;5076998;28;20733;-45
2022/05/21 10:18:26;;;;;;;1.60;0.80;;;31.50;34.30;;;;;;5059035;28;20172;-43
2022/05/21 10:20:56;;;;;;;2.70;0.93;;;31.80;34.60;;;;;;5076915;28;20393;-45
2022/05/21 10:23:27;;;;;;;1.40;0.70;;;32.00;33.50;;;;;;5059306;28;20395;-44
2022/05/21 10:26:06;;;;;;;1.63;0.90;;;31.90;32.60;;;;;;5076627;28;20419;-43
2022/05/21 10:28:35;;;;;;;1.33;1.07;;;31.90;32.90;;;;;;5076321;28;20599;-46
2022/05/21 10:31:06;;;;;;;1.47;0.80;;;31.80;33.00;;;;;;5075883;28;20830;-43
2022/05/21 10:34:03;;;;;;;1.50;0.90;;;32.00;33.10;;;;;;5064848;28;20476;-41
2022/05/21 10:37:04;;;;;;;1.90;0.90;;;32.00;32.10;;;;;;5043313;28;20528;-43
2022/05/21 10:39:51;;;;;;;1.50;0.67;;;32.10;32.50;;;;;;5030952;28;20609;-42
2022/05/21 10:42:46;;;;;;;1.13;0.73;;;32.40;33.80;;;;;;5056631;28;20518;-41
2022/05/21 10:45:32;;;;;;;2.17;0.90;;;32.60;33.90;;;;;;5039493;28;20460;-44
2022/05/21 10:47:57;;;;;;;1.20;0.77;;;32.30;33.70;;;;;;5058985;28;20440;-42
2022/05/21 10:50:27;;;;;;;1.73;0.97;;;32.30;34.00;;;;;;5057529;28;20420;-41
2022/05/21 10:53:31;;;;;;;2.70;0.87;;;32.60;33.70;;;;;;5053057;28;20306;-43
2022/05/21 10:55:59;;;;;;;1.67;0.87;;;32.80;33.50;;;;;;5035726;28;20508;-41
2022/05/21 10:58:52;;;;;;;2.43;1.00;;;33.10;32.80;;;;;;5020433;28;20734;-42
2022/05/21 11:01:47;;;;;;;1.30;0.77;;;33.30;31.30;;;;;;5036466;28;20448;-42
2022/05/21 11:04:15;;;;;;;1.50;0.97;;;33.60;31.30;;;;;;5053505;28;20473;-42
2022/05/21 11:07:16;;;;;;;1.60;1.27;;;33.60;32.50;;;;;;5075966;28;20423;-45
2022/05/21 11:10:13;;;;;;;2.43;1.00;;;33.70;32.40;;;;;;5075690;28;20819;-43
2022/05/21 11:12:53;;;;;;;1.33;0.90;;;33.90;33.00;;;;;;5074981;28;20397;-44
2022/05/21 11:15:48;;;;;;;1.90;0.83;;;33.80;31.30;;;;;;5075704;28;20532;-43
2022/05/21 11:18:42;;;;;;;1.20;0.70;;;33.80;31.40;;;;;;5072947;28;20413;-45
2022/05/21 11:21:23;;;;;;;1.50;1.07;;;34.10;31.40;;;;;;5073743;28;20445;-44
2022/05/21 11:24:12;;;;;;;1.30;0.80;;;34.40;31.10;;;;;;5073740;28;20728;-41
2022/05/21 11:26:59;;;;;;;1.47;0.87;;;34.90;31.50;;;;;;5055428;28;20405;-42
2022/05/21 11:29:33;;;;;;;1.60;0.80;;;35.40;31.00;;;;;;5074198;28;20424;-43
2022/05/21 11:37:35;;;;;;;1.80;1.10;;;35.90;31.10;;;;;;5059298;28;20434;-44
2022/05/21 11:40:01;;;;;;;1.60;0.90;;;36.10;30.70;;;;;;5056688;28;20416;-42
2022/05/21 11:42:33;;;;;;;2.33;1.10;;;36.10;30.00;;;;;;5074083;28;20394;-42
2022/05/21 11:45:21;;;;;;;2.70;1.27;;;36.20;30.40;;;;;;5071584;28;20699;-47
2022/05/21 11:48:10;;;;;;;1.57;0.90;;;36.30;30.30;;;;;;5057641;28;20422;-45
2022/05/21 11:50:36;;;;;;;2.03;0.83;;;36.50;30.40;;;;;;5074757;28;20387;-44
2022/05/21 11:53:05;;;;;;;1.23;0.73;;;36.60;30.10;;;;;;5072934;28;20490;-46
2022/05/21 11:56:04;;;;;;;2.47;1.00;;;36.60;30.70;;;;;;5039796;28;20210;-45
2022/05/21 11:59:02;;;;;;;3.97;1.30;;;36.60;30.00;;;;;;5073195;28;20427;-45
2022/05/21 12:01:38;;;;;;;1.57;1.00;;;36.30;29.20;;;;;;5040683;28;20693;-40
2022/05/21 12:04:21;;;;;;;3.07;0.93;;;36.40;29.60;;;;;;5075764;28;20730;-40
2022/05/21 12:06:47;;;;;;;3.87;1.47;;;36.40;29.40;;;;;;5076050;28;20391;-43
2022/05/21 12:09:31;;;;;;;4.97;1.80;;;36.70;29.20;;;;;;5079623;28;20737;-40
2022/05/21 12:12:25;;;;;;;5.37;1.50;;;36.90;29.20;;;;;;5060213;28;20187;-41
2022/05/21 12:14:56;;;;;;;2.10;1.10;;;36.90;29.50;;;;;;5077693;28;20703;-44
2022/05/21 12:17:40;;;;;;;2.27;0.87;;;37.10;28.90;;;;;;5076923;28;20411;-46
2022/05/21 12:20:10;;;;;;;1.93;0.90;;;37.20;28.60;;;;;;5073660;28;20415;-45
2022/05/21 12:22:55;;;;;;;2.03;0.87;;;37.30;28.90;;;;;;5059038;28;20422;-45
2022/05/21 12:25:57;;;;;;;4.07;3.10;;;37.10;29.10;;;;;;5075451;28;20731;-44
2022/05/21 12:28:47;;;;;;;1.60;1.13;;;37.20;29.10;;;;;;4996022;28;20431;-44
2022/05/21 12:31:20;;;;;;;1.57;1.07;;;37.10;28.30;;;;;;5042429;28;20431;-43
2022/05/21 12:34:07;;;;;;;1.60;1.10;;;36.50;29.00;;;;;;5059895;28;20453;-40
2022/05/21 12:36:42;;;;;;;2.30;1.00;;;36.10;29.20;;;;;;5076955;28;20517;-41
2022/05/21 12:39:11;;;;;;;3.20;1.20;;;36.10;29.40;;;;;;5076219;28;20407;-43
2022/05/21 12:41:40;;;;;;;1.90;1.00;;;36.20;29.20;;;;;;5058594;28;20817;-43
2022/05/21 12:44:06;;;;;;;2.13;1.30;;;36.50;28.80;;;;;;5058092;28;20919;-45
2022/05/21 12:46:36;;;;;;;4.93;1.50;;;36.90;29.00;;;;;;5073493;28;20554;-43
2022/05/21 12:49:09;;;;;;;2.07;1.40;;;36.90;28.40;;;;;;5058877;28;20431;-44
2022/05/21 12:51:38;;;;;;;2.90;1.50;;;36.50;28.10;;;;;;5062361;28;20905;-42
2022/05/21 12:54:08;;;;;;;2.63;1.40;;;36.50;28.30;;;;;;5038801;28;20576;-47
2022/05/21 12:56:36;;;;;;;2.67;1.40;;;36.30;28.80;;;;;;5058016;28;20497;-43
2022/05/21 12:59:02;;;;;;;2.80;1.17;;;36.30;28.90;;;;;;5056742;28;20617;-42
2022/05/21 13:01:30;;;;;;;3.23;1.30;;;36.20;28.80;;;;;;5056288;28;20446;-43
2022/05/21 13:03:58;;;;;;;1.70;1.23;;;36.20;29.20;;;;;;5058072;28;20199;-46
2022/05/21 13:06:26;;;;;;;4.43;1.40;;;36.20;29.40;;;;;;5040097;28;20459;-43
2022/05/21 13:08:52;;;;;;;2.80;1.20;;;36.30;29.60;;;;;;5040251;28;20865;-42
2022/05/21 13:11:19;;;;;;;3.47;1.50;;;36.60;28.90;;;;;;5056144;28;20435;-46
2022/05/21 13:14:01;;;;;;;2.30;1.40;;;36.90;28.40;;;;;;5055162;28;20456;-43
2022/05/21 13:16:27;;;;;;;1.80;1.00;;;37.20;28.60;;;;;;5056270;28;20841;-44
2022/05/21 13:19:28;;;;;;;1.93;1.17;;;37.30;28.40;;;;;;5039282;28;20429;-44
2022/05/21 13:22:00;;;;;;;2.13;1.20;;;37.50;28.40;;;;;;5056521;28;20507;-42
2022/05/21 13:24:31;;;;;;;1.87;1.27;;;37.60;27.90;;;;;;5039574;28;20431;-43
2022/05/21 13:27:18;;;;;;;1.93;1.30;;;37.40;28.00;;;;;;5055197;28;20790;-45
2022/05/21 13:29:45;;;;;;;2.57;1.33;;;37.20;27.60;;;;;;5055440;28;20428;-43
2022/05/21 13:32:23;;;;;;;1.60;0.90;;;37.30;28.10;;;;;;5055638;28;20428;-42
2022/05/21 13:34:49;;;;;;;2.67;1.03;;;37.30;28.00;;;;;;5076267;28;20473;-44
2022/05/21 13:37:15;;;;;;;1.60;0.90;;;37.50;27.50;;;;;;5077459;28;20407;-42